Aérodrome :
LOGIN :

S'inscrire | Disclaimer

   EN    FR    IT 

 










Légende :    VFR   VFR Marginal   IFR   IFR Intensif   IFR Très Intensif
Visi : 
Plafond : 
>= 8 km
>= 3000ft
5 à 8 km
1000 à 3000 ft
1500m à 5 km
500 à 1000 ft
800 à 1500m
200 à 500 ft
< 800m
< 200 ft
Symboles :   Orages  Brouillard  Fortes neiges  Fortes précipitations  Vent > 20 kt
SIGMETs :   Divers  Orages  Givrage  Turbulence  Onde Orograph.  Cendres Volcan.







- Altitude de l'aérodrome : 390 ft
- Code IATA : NQY
- Voir les cartes d'approche


EGHQ - Newquay

DERNIER METAR :
  • 221950Z 11009KT 9000 NSC 01/M03 Q1020

METARs EXPIRÉS :
  • 221920Z 11011KT 9000 NSC 02/M02 Q1020
  • 221850Z 11011KT 9000 NSC 02/M02 Q1020
  • 221820Z 12011KT 9000 NSC 02/M01 Q1020
  • 221750Z 12011KT 9000 NSC 03/M01 Q1020
  • 221720Z 13010KT CAVOK 03/M01 Q1020

TAF TAF EGHQ
Valide du 22 à 18h jusqu'au 22 à 22h UTC


221654Z 2218/2222 11010KT 9999 FEW040
PROB40 2218/2222 8000
Pas de NOTAMs connus pour ce terrain.



MET'MAP, la Météo Aéronautique d'un coup d'oeil ! - Copyright ORBIFLY Décembre 2007 - Disclaimer

ORBIFLY MET'MAP TEAM :

Programmation & Développement : Alexandra Zaïnal
Conception & Développement : Baudouin d'Aumeries
Co-Programmation & Développement : Marc-Olivier Méhu
Soutien technique & logistique : Manuel Goepfert

Contact : metmap@orbifly.com




SOURCES & CREDITS :

   NOAA